sensor_id;sensor_type;location;lat;lon;timestamp;P1;durP1;ratioP1;P2;durP2;ratioP2
12631;SDS011;6381;45.748;12.106;2023-04-25T00:00:04;4.20;;;3.80;;
12631;SDS011;6381;45.748;12.106;2023-04-25T00:02:39;4.43;;;4.03;;
12631;SDS011;6381;45.748;12.106;2023-04-25T00:05:08;4.10;;;3.70;;
12631;SDS011;6381;45.748;12.106;2023-04-25T00:07:38;4.10;;;3.70;;
12631;SDS011;6381;45.748;12.106;2023-04-25T00:10:08;4.53;;;4.10;;
12631;SDS011;6381;45.748;12.106;2023-04-25T00:12:38;4.57;;;4.07;;
12631;SDS011;6381;45.748;12.106;2023-04-25T00:15:08;3.93;;;3.53;;
12631;SDS011;6381;45.748;12.106;2023-04-25T00:17:38;4.40;;;4.00;;
12631;SDS011;6381;45.748;12.106;2023-04-25T00:20:08;4.67;;;3.93;;
12631;SDS011;6381;45.748;12.106;2023-04-25T00:22:38;4.07;;;3.67;;
12631;SDS011;6381;45.748;12.106;2023-04-25T00:25:07;4.60;;;3.77;;
12631;SDS011;6381;45.748;12.106;2023-04-25T00:27:36;4.03;;;3.73;;
12631;SDS011;6381;45.748;12.106;2023-04-25T00:30:06;4.33;;;3.93;;
12631;SDS011;6381;45.748;12.106;2023-04-25T00:32:36;3.87;;;3.57;;
12631;SDS011;6381;45.748;12.106;2023-04-25T00:35:06;3.63;;;3.33;;
12631;SDS011;6381;45.748;12.106;2023-04-25T00:37:35;4.00;;;3.60;;
12631;SDS011;6381;45.748;12.106;2023-04-25T00:40:05;3.20;;;2.90;;
12631;SDS011;6381;45.748;12.106;2023-04-25T00:42:35;3.73;;;3.43;;
12631;SDS011;6381;45.748;12.106;2023-04-25T00:45:05;3.97;;;3.57;;
12631;SDS011;6381;45.748;12.106;2023-04-25T00:47:35;3.00;;;2.70;;
12631;SDS011;6381;45.748;12.106;2023-04-25T00:50:07;3.13;;;2.87;;
12631;SDS011;6381;45.748;12.106;2023-04-25T00:52:38;2.80;;;2.60;;
12631;SDS011;6381;45.748;12.106;2023-04-25T00:55:08;2.90;;;2.50;;
12631;SDS011;6381;45.748;12.106;2023-04-25T00:57:38;3.03;;;2.63;;
12631;SDS011;6381;45.748;12.106;2023-04-25T01:00:08;4.20;;;2.93;;
12631;SDS011;6381;45.748;12.106;2023-04-25T01:02:40;3.17;;;2.87;;
12631;SDS011;6381;45.748;12.106;2023-04-25T01:05:11;2.80;;;2.50;;
12631;SDS011;6381;45.748;12.106;2023-04-25T01:07:40;2.67;;;2.33;;
12631;SDS011;6381;45.748;12.106;2023-04-25T01:10:09;3.00;;;2.70;;
12631;SDS011;6381;45.748;12.106;2023-04-25T01:12:39;2.50;;;2.30;;
12631;SDS011;6381;45.748;12.106;2023-04-25T01:15:08;2.60;;;2.40;;
12631;SDS011;6381;45.748;12.106;2023-04-25T01:17:37;3.60;;;2.40;;
12631;SDS011;6381;45.748;12.106;2023-04-25T01:20:08;3.83;;;2.60;;
12631;SDS011;6381;45.748;12.106;2023-04-25T01:22:41;2.60;;;2.40;;
12631;SDS011;6381;45.748;12.106;2023-04-25T01:25:10;3.57;;;2.00;;
12631;SDS011;6381;45.748;12.106;2023-04-25T01:27:39;2.30;;;2.10;;
12631;SDS011;6381;45.748;12.106;2023-04-25T01:30:09;2.80;;;2.37;;
12631;SDS011;6381;45.748;12.106;2023-04-25T01:32:39;2.17;;;1.97;;
12631;SDS011;6381;45.748;12.106;2023-04-25T01:35:10;3.00;;;1.90;;
12631;SDS011;6381;45.748;12.106;2023-04-25T01:37:41;2.10;;;1.90;;
12631;SDS011;6381;45.748;12.106;2023-04-25T01:40:11;3.27;;;2.00;;
12631;SDS011;6381;45.748;12.106;2023-04-25T01:42:42;2.73;;;1.90;;
12631;SDS011;6381;45.748;12.106;2023-04-25T01:45:11;2.20;;;2.00;;
12631;SDS011;6381;45.748;12.106;2023-04-25T01:47:40;2.27;;;2.00;;
12631;SDS011;6381;45.748;12.106;2023-04-25T01:50:10;2.30;;;2.10;;
12631;SDS011;6381;45.748;12.106;2023-04-25T01:52:40;5.27;;;2.43;;
12631;SDS011;6381;45.748;12.106;2023-04-25T01:55:10;2.40;;;2.20;;
12631;SDS011;6381;45.748;12.106;2023-04-25T01:57:49;3.83;;;2.30;;
12631;SDS011;6381;45.748;12.106;2023-04-25T02:00:22;2.07;;;1.90;;
12631;SDS011;6381;45.748;12.106;2023-04-25T02:02:51;3.27;;;2.17;;
12631;SDS011;6381;45.748;12.106;2023-04-25T02:05:28;2.30;;;2.10;;
12631;SDS011;6381;45.748;12.106;2023-04-25T02:08:04;3.03;;;2.20;;
12631;SDS011;6381;45.748;12.106;2023-04-25T02:10:33;2.17;;;1.97;;
12631;SDS011;6381;45.748;12.106;2023-04-25T02:13:17;2.27;;;1.87;;
12631;SDS011;6381;45.748;12.106;2023-04-25T02:16:03;2.43;;;2.00;;
12631;SDS011;6381;45.748;12.106;2023-04-25T02:18:32;2.27;;;2.07;;
12631;SDS011;6381;45.748;12.106;2023-04-25T02:21:01;2.37;;;2.00;;
12631;SDS011;6381;45.748;12.106;2023-04-25T02:23:31;2.00;;;1.80;;
12631;SDS011;6381;45.748;12.106;2023-04-25T02:26:00;2.10;;;1.90;;
12631;SDS011;6381;45.748;12.106;2023-04-25T02:28:29;2.10;;;1.90;;
12631;SDS011;6381;45.748;12.106;2023-04-25T02:30:58;2.13;;;1.93;;
12631;SDS011;6381;45.748;12.106;2023-04-25T02:33:27;3.37;;;2.10;;
12631;SDS011;6381;45.748;12.106;2023-04-25T02:35:57;3.10;;;1.97;;
12631;SDS011;6381;45.748;12.106;2023-04-25T02:38:25;2.07;;;1.87;;
12631;SDS011;6381;45.748;12.106;2023-04-25T02:40:57;2.63;;;2.00;;
12631;SDS011;6381;45.748;12.106;2023-04-25T02:43:26;1.90;;;1.70;;
12631;SDS011;6381;45.748;12.106;2023-04-25T02:45:54;1.70;;;1.60;;
12631;SDS011;6381;45.748;12.106;2023-04-25T02:48:23;1.77;;;1.67;;
12631;SDS011;6381;45.748;12.106;2023-04-25T02:50:52;2.30;;;1.80;;
12631;SDS011;6381;45.748;12.106;2023-04-25T02:53:21;1.60;;;1.50;;
12631;SDS011;6381;45.748;12.106;2023-04-25T02:55:52;1.70;;;1.50;;
12631;SDS011;6381;45.748;12.106;2023-04-25T02:58:22;1.50;;;1.40;;
12631;SDS011;6381;45.748;12.106;2023-04-25T03:00:52;1.93;;;1.47;;
12631;SDS011;6381;45.748;12.106;2023-04-25T03:03:21;1.53;;;1.43;;
12631;SDS011;6381;45.748;12.106;2023-04-25T03:05:51;1.57;;;1.40;;
12631;SDS011;6381;45.748;12.106;2023-04-25T03:08:24;1.40;;;1.30;;
12631;SDS011;6381;45.748;12.106;2023-04-25T03:10:58;1.30;;;1.20;;
12631;SDS011;6381;45.748;12.106;2023-04-25T03:13:29;1.80;;;1.40;;
12631;SDS011;6381;45.748;12.106;2023-04-25T03:16:00;1.67;;;1.43;;
12631;SDS011;6381;45.748;12.106;2023-04-25T03:18:29;2.23;;;1.50;;
12631;SDS011;6381;45.748;12.106;2023-04-25T03:20:57;2.03;;;1.53;;
12631;SDS011;6381;45.748;12.106;2023-04-25T03:23:26;1.37;;;1.27;;
12631;SDS011;6381;45.748;12.106;2023-04-25T03:25:57;1.50;;;1.40;;
12631;SDS011;6381;45.748;12.106;2023-04-25T03:28:26;1.40;;;1.30;;
12631;SDS011;6381;45.748;12.106;2023-04-25T03:30:57;3.17;;;1.40;;
12631;SDS011;6381;45.748;12.106;2023-04-25T03:33:26;1.50;;;1.40;;
12631;SDS011;6381;45.748;12.106;2023-04-25T03:35:55;1.53;;;1.40;;
12631;SDS011;6381;45.748;12.106;2023-04-25T03:38:24;1.70;;;1.60;;
12631;SDS011;6381;45.748;12.106;2023-04-25T03:40:53;4.10;;;3.80;;
12631;SDS011;6381;45.748;12.106;2023-04-25T03:43:37;2.97;;;2.77;;
12631;SDS011;6381;45.748;12.106;2023-04-25T03:46:10;3.40;;;1.80;;
12631;SDS011;6381;45.748;12.106;2023-04-25T03:48:40;2.30;;;1.67;;
12631;SDS011;6381;45.748;12.106;2023-04-25T03:51:13;1.70;;;1.50;;
12631;SDS011;6381;45.748;12.106;2023-04-25T03:53:45;1.63;;;1.53;;
12631;SDS011;6381;45.748;12.106;2023-04-25T03:56:14;1.50;;;1.40;;
12631;SDS011;6381;45.748;12.106;2023-04-25T03:58:47;1.60;;;1.40;;
12631;SDS011;6381;45.748;12.106;2023-04-25T04:01:18;1.40;;;1.30;;
12631;SDS011;6381;45.748;12.106;2023-04-25T04:03:47;1.40;;;1.30;;
12631;SDS011;6381;45.748;12.106;2023-04-25T04:06:17;1.30;;;1.20;;
12631;SDS011;6381;45.748;12.106;2023-04-25T04:08:52;1.63;;;1.30;;
12631;SDS011;6381;45.748;12.106;2023-04-25T04:11:22;1.80;;;1.40;;
12631;SDS011;6381;45.748;12.106;2023-04-25T04:13:52;1.97;;;1.37;;
12631;SDS011;6381;45.748;12.106;2023-04-25T04:16:21;1.60;;;1.50;;
12631;SDS011;6381;45.748;12.106;2023-04-25T04:18:50;2.03;;;1.40;;
12631;SDS011;6381;45.748;12.106;2023-04-25T04:21:19;1.47;;;1.30;;
12631;SDS011;6381;45.748;12.106;2023-04-25T04:23:48;1.50;;;1.40;;
12631;SDS011;6381;45.748;12.106;2023-04-25T04:26:17;1.53;;;1.43;;
12631;SDS011;6381;45.748;12.106;2023-04-25T04:29:07;2.60;;;1.43;;
12631;SDS011;6381;45.748;12.106;2023-04-25T04:31:40;1.73;;;1.50;;
12631;SDS011;6381;45.748;12.106;2023-04-25T04:34:10;1.80;;;1.60;;
12631;SDS011;6381;45.748;12.106;2023-04-25T04:36:40;3.10;;;1.60;;
12631;SDS011;6381;45.748;12.106;2023-04-25T04:39:08;2.00;;;1.80;;
12631;SDS011;6381;45.748;12.106;2023-04-25T04:41:52;3.10;;;2.17;;
12631;SDS011;6381;45.748;12.106;2023-04-25T04:44:45;4.07;;;2.47;;
12631;SDS011;6381;45.748;12.106;2023-04-25T04:47:25;2.50;;;2.30;;
12631;SDS011;6381;45.748;12.106;2023-04-25T04:50:17;3.70;;;2.83;;
12631;SDS011;6381;45.748;12.106;2023-04-25T04:53:13;4.77;;;2.93;;
12631;SDS011;6381;45.748;12.106;2023-04-25T04:55:57;4.53;;;2.50;;
12631;SDS011;6381;45.748;12.106;2023-04-25T04:58:44;2.63;;;2.33;;
12631;SDS011;6381;45.748;12.106;2023-04-25T05:01:37;2.83;;;2.47;;
12631;SDS011;6381;45.748;12.106;2023-04-25T05:04:41;3.03;;;2.83;;
12631;SDS011;6381;45.748;12.106;2023-04-25T05:07:35;4.37;;;3.60;;
12631;SDS011;6381;45.748;12.106;2023-04-25T05:10:09;4.40;;;3.27;;
12631;SDS011;6381;45.748;12.106;2023-04-25T05:13:01;4.50;;;4.10;;
12631;SDS011;6381;45.748;12.106;2023-04-25T05:15:49;6.43;;;4.33;;
12631;SDS011;6381;45.748;12.106;2023-04-25T05:18:35;4.50;;;4.10;;
12631;SDS011;6381;45.748;12.106;2023-04-25T05:21:24;5.40;;;4.10;;
12631;SDS011;6381;45.748;12.106;2023-04-25T05:24:23;5.20;;;4.80;;
12631;SDS011;6381;45.748;12.106;2023-04-25T05:27:27;7.30;;;4.90;;
12631;SDS011;6381;45.748;12.106;2023-04-25T05:30:25;5.90;;;4.90;;
12631;SDS011;6381;45.748;12.106;2023-04-25T05:32:59;6.00;;;5.50;;
12631;SDS011;6381;45.748;12.106;2023-04-25T05:35:30;6.17;;;5.67;;
12631;SDS011;6381;45.748;12.106;2023-04-25T05:37:59;5.90;;;5.33;;
12631;SDS011;6381;45.748;12.106;2023-04-25T05:41:04;6.17;;;5.60;;
12631;SDS011;6381;45.748;12.106;2023-04-25T05:44:00;6.67;;;5.97;;
12631;SDS011;6381;45.748;12.106;2023-04-25T05:46:43;7.60;;;6.50;;
12631;SDS011;6381;45.748;12.106;2023-04-25T05:49:24;8.17;;;6.40;;
12631;SDS011;6381;45.748;12.106;2023-04-25T05:52:18;7.63;;;6.93;;
12631;SDS011;6381;45.748;12.106;2023-04-25T05:54:55;8.47;;;7.63;;
12631;SDS011;6381;45.748;12.106;2023-04-25T05:57:26;8.73;;;7.83;;
12631;SDS011;6381;45.748;12.106;2023-04-25T05:59:55;9.43;;;8.00;;
12631;SDS011;6381;45.748;12.106;2023-04-25T06:02:38;8.80;;;8.00;;
12631;SDS011;6381;45.748;12.106;2023-04-25T06:05:09;9.23;;;8.33;;
12631;SDS011;6381;45.748;12.106;2023-04-25T06:07:40;10.70;;;9.70;;
12631;SDS011;6381;45.748;12.106;2023-04-25T06:10:09;11.47;;;10.33;;
12631;SDS011;6381;45.748;12.106;2023-04-25T06:12:38;11.23;;;10.23;;
12631;SDS011;6381;45.748;12.106;2023-04-25T06:15:07;10.77;;;9.47;;
12631;SDS011;6381;45.748;12.106;2023-04-25T06:17:53;11.07;;;9.83;;
12631;SDS011;6381;45.748;12.106;2023-04-25T06:20:22;11.17;;;10.17;;
12631;SDS011;6381;45.748;12.106;2023-04-25T06:22:55;12.47;;;11.17;;
12631;SDS011;6381;45.748;12.106;2023-04-25T06:25:35;11.43;;;10.37;;
12631;SDS011;6381;45.748;12.106;2023-04-25T06:28:04;11.07;;;9.97;;
12631;SDS011;6381;45.748;12.106;2023-04-25T06:30:33;10.47;;;9.30;;
12631;SDS011;6381;45.748;12.106;2023-04-25T06:33:07;8.70;;;7.90;;
12631;SDS011;6381;45.748;12.106;2023-04-25T06:35:37;9.63;;;8.67;;
12631;SDS011;6381;45.748;12.106;2023-04-25T06:38:11;9.13;;;8.23;;
12631;SDS011;6381;45.748;12.106;2023-04-25T06:40:44;8.70;;;7.90;;
12631;SDS011;6381;45.748;12.106;2023-04-25T06:43:13;8.60;;;7.70;;
12631;SDS011;6381;45.748;12.106;2023-04-25T06:46:02;8.07;;;7.27;;
12631;SDS011;6381;45.748;12.106;2023-04-25T06:48:36;7.87;;;7.17;;
12631;SDS011;6381;45.748;12.106;2023-04-25T06:51:05;8.03;;;7.27;;
12631;SDS011;6381;45.748;12.106;2023-04-25T06:53:39;8.20;;;7.37;;
12631;SDS011;6381;45.748;12.106;2023-04-25T06:56:14;8.00;;;7.30;;
12631;SDS011;6381;45.748;12.106;2023-04-25T06:58:50;7.90;;;7.13;;
12631;SDS011;6381;45.748;12.106;2023-04-25T07:01:34;9.43;;;7.50;;
12631;SDS011;6381;45.748;12.106;2023-04-25T07:04:08;8.40;;;7.63;;
12631;SDS011;6381;45.748;12.106;2023-04-25T07:06:43;7.57;;;6.80;;
12631;SDS011;6381;45.748;12.106;2023-04-25T07:09:18;6.43;;;5.83;;
12631;SDS011;6381;45.748;12.106;2023-04-25T07:11:48;7.43;;;6.73;;
12631;SDS011;6381;45.748;12.106;2023-04-25T07:14:17;8.53;;;6.77;;
12631;SDS011;6381;45.748;12.106;2023-04-25T07:16:46;7.20;;;6.50;;
12631;SDS011;6381;45.748;12.106;2023-04-25T07:19:15;7.60;;;6.63;;
12631;SDS011;6381;45.748;12.106;2023-04-25T07:21:44;6.87;;;6.17;;
12631;SDS011;6381;45.748;12.106;2023-04-25T07:24:13;8.03;;;7.33;;
12631;SDS011;6381;45.748;12.106;2023-04-25T07:26:46;7.90;;;7.10;;
12631;SDS011;6381;45.748;12.106;2023-04-25T07:29:26;8.30;;;7.50;;
12631;SDS011;6381;45.748;12.106;2023-04-25T07:31:58;8.77;;;7.37;;
12631;SDS011;6381;45.748;12.106;2023-04-25T07:34:27;7.77;;;6.90;;
12631;SDS011;6381;45.748;12.106;2023-04-25T07:36:56;8.57;;;6.83;;
12631;SDS011;6381;45.748;12.106;2023-04-25T07:39:33;7.27;;;6.57;;
12631;SDS011;6381;45.748;12.106;2023-04-25T07:42:04;6.97;;;6.37;;
12631;SDS011;6381;45.748;12.106;2023-04-25T07:44:38;7.97;;;6.60;;
12631;SDS011;6381;45.748;12.106;2023-04-25T07:47:09;7.43;;;6.73;;
12631;SDS011;6381;45.748;12.106;2023-04-25T07:49:38;7.83;;;7.13;;
12631;SDS011;6381;45.748;12.106;2023-04-25T07:52:07;8.30;;;7.40;;
12631;SDS011;6381;45.748;12.106;2023-04-25T07:54:38;8.07;;;7.27;;
12631;SDS011;6381;45.748;12.106;2023-04-25T07:57:15;7.93;;;7.13;;
12631;SDS011;6381;45.748;12.106;2023-04-25T07:59:47;8.10;;;7.37;;
12631;SDS011;6381;45.748;12.106;2023-04-25T08:02:16;7.97;;;7.17;;
12631;SDS011;6381;45.748;12.106;2023-04-25T08:04:44;7.60;;;6.80;;
12631;SDS011;6381;45.748;12.106;2023-04-25T08:07:16;9.33;;;7.40;;
12631;SDS011;6381;45.748;12.106;2023-04-25T08:09:49;8.60;;;7.70;;
12631;SDS011;6381;45.748;12.106;2023-04-25T08:12:28;7.53;;;6.93;;
12631;SDS011;6381;45.748;12.106;2023-04-25T08:14:58;7.60;;;6.90;;
12631;SDS011;6381;45.748;12.106;2023-04-25T08:17:32;7.17;;;6.30;;
12631;SDS011;6381;45.748;12.106;2023-04-25T08:20:01;8.93;;;7.40;;
12631;SDS011;6381;45.748;12.106;2023-04-25T08:22:33;9.13;;;8.33;;
12631;SDS011;6381;45.748;12.106;2023-04-25T08:25:20;8.90;;;8.00;;
12631;SDS011;6381;45.748;12.106;2023-04-25T08:27:53;9.63;;;8.73;;
12631;SDS011;6381;45.748;12.106;2023-04-25T08:30:22;9.07;;;8.27;;
12631;SDS011;6381;45.748;12.106;2023-04-25T08:32:52;11.80;;;10.60;;
12631;SDS011;6381;45.748;12.106;2023-04-25T08:35:50;13.03;;;11.83;;
12631;SDS011;6381;45.748;12.106;2023-04-25T08:38:19;10.93;;;9.93;;
12631;SDS011;6381;45.748;12.106;2023-04-25T08:40:49;8.53;;;7.73;;
12631;SDS011;6381;45.748;12.106;2023-04-25T08:43:21;8.43;;;7.63;;
12631;SDS011;6381;45.748;12.106;2023-04-25T08:45:53;7.23;;;6.53;;
12631;SDS011;6381;45.748;12.106;2023-04-25T08:48:33;6.70;;;6.00;;
12631;SDS011;6381;45.748;12.106;2023-04-25T08:51:03;7.17;;;6.53;;
12631;SDS011;6381;45.748;12.106;2023-04-25T08:53:40;7.97;;;7.17;;
12631;SDS011;6381;45.748;12.106;2023-04-25T08:56:12;9.20;;;8.20;;
12631;SDS011;6381;45.748;12.106;2023-04-25T08:58:49;8.43;;;7.53;;
12631;SDS011;6381;45.748;12.106;2023-04-25T09:01:18;7.73;;;7.03;;
12631;SDS011;6381;45.748;12.106;2023-04-25T09:03:52;12.53;;;10.53;;
12631;SDS011;6381;45.748;12.106;2023-04-25T09:06:23;13.57;;;12.27;;
12631;SDS011;6381;45.748;12.106;2023-04-25T09:08:52;10.27;;;8.47;;
12631;SDS011;6381;45.748;12.106;2023-04-25T09:11:21;13.20;;;10.47;;
12631;SDS011;6381;45.748;12.106;2023-04-25T09:13:54;7.77;;;7.07;;
12631;SDS011;6381;45.748;12.106;2023-04-25T09:17:02;5.97;;;5.37;;
12631;SDS011;6381;45.748;12.106;2023-04-25T09:19:38;4.63;;;4.23;;
12631;SDS011;6381;45.748;12.106;2023-04-25T09:22:15;5.93;;;5.40;;
12631;SDS011;6381;45.748;12.106;2023-04-25T09:24:48;9.70;;;8.90;;
12631;SDS011;6381;45.748;12.106;2023-04-25T09:27:21;12.43;;;11.40;;
12631;SDS011;6381;45.748;12.106;2023-04-25T09:30:14;6.67;;;6.07;;
12631;SDS011;6381;45.748;12.106;2023-04-25T09:33:04;21.27;;;19.03;;
12631;SDS011;6381;45.748;12.106;2023-04-25T09:35:36;15.10;;;13.60;;
12631;SDS011;6381;45.748;12.106;2023-04-25T09:38:09;9.70;;;8.70;;
12631;SDS011;6381;45.748;12.106;2023-04-25T09:40:48;18.20;;;15.33;;
12631;SDS011;6381;45.748;12.106;2023-04-25T09:43:25;4.27;;;3.87;;
12631;SDS011;6381;45.748;12.106;2023-04-25T09:45:57;3.20;;;2.90;;
12631;SDS011;6381;45.748;12.106;2023-04-25T09:48:29;3.47;;;3.17;;
12631;SDS011;6381;45.748;12.106;2023-04-25T09:51:06;4.33;;;4.00;;
12631;SDS011;6381;45.748;12.106;2023-04-25T09:53:36;4.23;;;3.73;;
12631;SDS011;6381;45.748;12.106;2023-04-25T09:56:29;4.70;;;4.30;;
12631;SDS011;6381;45.748;12.106;2023-04-25T09:59:05;4.67;;;4.13;;
12631;SDS011;6381;45.748;12.106;2023-04-25T10:01:38;4.33;;;4.03;;
12631;SDS011;6381;45.748;12.106;2023-04-25T10:04:21;4.23;;;3.83;;
12631;SDS011;6381;45.748;12.106;2023-04-25T10:07:01;4.77;;;4.30;;
12631;SDS011;6381;45.748;12.106;2023-04-25T10:09:32;3.73;;;3.43;;
12631;SDS011;6381;45.748;12.106;2023-04-25T10:12:02;3.87;;;3.10;;
12631;SDS011;6381;45.748;12.106;2023-04-25T10:14:36;3.00;;;2.70;;
12631;SDS011;6381;45.748;12.106;2023-04-25T10:17:08;2.60;;;2.10;;
12631;SDS011;6381;45.748;12.106;2023-04-25T10:19:38;1.77;;;1.67;;
12631;SDS011;6381;45.748;12.106;2023-04-25T10:22:08;2.70;;;2.13;;
12631;SDS011;6381;45.748;12.106;2023-04-25T10:24:40;2.50;;;2.30;;
12631;SDS011;6381;45.748;12.106;2023-04-25T10:27:11;2.67;;;2.20;;
12631;SDS011;6381;45.748;12.106;2023-04-25T10:29:40;2.87;;;2.67;;
12631;SDS011;6381;45.748;12.106;2023-04-25T10:32:12;3.00;;;2.30;;
12631;SDS011;6381;45.748;12.106;2023-04-25T10:34:42;2.30;;;2.10;;
12631;SDS011;6381;45.748;12.106;2023-04-25T10:37:13;3.00;;;2.37;;
12631;SDS011;6381;45.748;12.106;2023-04-25T10:39:42;3.00;;;2.70;;
12631;SDS011;6381;45.748;12.106;2023-04-25T10:42:12;3.00;;;2.20;;
12631;SDS011;6381;45.748;12.106;2023-04-25T10:44:41;2.00;;;1.90;;
12631;SDS011;6381;45.748;12.106;2023-04-25T10:47:35;2.50;;;2.30;;
12631;SDS011;6381;45.748;12.106;2023-04-25T10:50:05;2.40;;;2.20;;
12631;SDS011;6381;45.748;12.106;2023-04-25T10:52:35;2.27;;;1.83;;
12631;SDS011;6381;45.748;12.106;2023-04-25T10:55:07;1.60;;;1.50;;
12631;SDS011;6381;45.748;12.106;2023-04-25T10:57:37;1.73;;;1.63;;
12631;SDS011;6381;45.748;12.106;2023-04-25T11:00:13;2.27;;;1.73;;
12631;SDS011;6381;45.748;12.106;2023-04-25T11:02:46;2.13;;;1.80;;
12631;SDS011;6381;45.748;12.106;2023-04-25T11:05:18;5.20;;;4.70;;
12631;SDS011;6381;45.748;12.106;2023-04-25T11:07:54;3.25;;;2.10;;
12631;SDS011;6381;45.748;12.106;2023-04-25T11:10:33;2.58;;;2.38;;
12631;SDS011;6381;45.748;12.106;2023-04-25T11:13:04;2.60;;;2.40;;
12631;SDS011;6381;45.748;12.106;2023-04-25T11:15:33;3.22;;;1.90;;
12631;SDS011;6381;45.748;12.106;2023-04-25T11:18:03;2.33;;;2.03;;
12631;SDS011;6381;45.748;12.106;2023-04-25T11:20:35;2.65;;;2.15;;
12631;SDS011;6381;45.748;12.106;2023-04-25T11:23:04;2.10;;;1.92;;
12631;SDS011;6381;45.748;12.106;2023-04-25T11:25:33;1.80;;;1.70;;
12631;SDS011;6381;45.748;12.106;2023-04-25T11:28:04;1.95;;;1.73;;
12631;SDS011;6381;45.748;12.106;2023-04-25T11:30:33;1.92;;;1.70;;
12631;SDS011;6381;45.748;12.106;2023-04-25T11:33:04;1.70;;;1.60;;
12631;SDS011;6381;45.748;12.106;2023-04-25T11:35:33;1.70;;;1.60;;
12631;SDS011;6381;45.748;12.106;2023-04-25T11:38:02;1.75;;;1.65;;
12631;SDS011;6381;45.748;12.106;2023-04-25T11:40:32;2.92;;;1.70;;
12631;SDS011;6381;45.748;12.106;2023-04-25T11:43:01;1.63;;;1.52;;
12631;SDS011;6381;45.748;12.106;2023-04-25T11:45:31;1.80;;;1.70;;
12631;SDS011;6381;45.748;12.106;2023-04-25T11:48:01;3.88;;;1.92;;
12631;SDS011;6381;45.748;12.106;2023-04-25T11:50:31;2.22;;;1.90;;
12631;SDS011;6381;45.748;12.106;2023-04-25T11:53:00;2.60;;;1.77;;
12631;SDS011;6381;45.748;12.106;2023-04-25T11:55:30;2.00;;;1.80;;
12631;SDS011;6381;45.748;12.106;2023-04-25T11:57:59;2.30;;;2.08;;
12631;SDS011;6381;45.748;12.106;2023-04-25T12:00:29;2.20;;;2.00;;
12631;SDS011;6381;45.748;12.106;2023-04-25T12:02:58;2.05;;;1.85;;
12631;SDS011;6381;45.748;12.106;2023-04-25T12:05:28;2.13;;;1.92;;
12631;SDS011;6381;45.748;12.106;2023-04-25T12:08:12;3.38;;;1.85;;
12631;SDS011;6381;45.748;12.106;2023-04-25T12:10:41;1.65;;;1.55;;
12631;SDS011;6381;45.748;12.106;2023-04-25T12:13:17;2.28;;;1.98;;
12631;SDS011;6381;45.748;12.106;2023-04-25T12:15:53;1.88;;;1.77;;
12631;SDS011;6381;45.748;12.106;2023-04-25T12:18:23;2.10;;;1.90;;
12631;SDS011;6381;45.748;12.106;2023-04-25T12:20:54;1.60;;;1.50;;
12631;SDS011;6381;45.748;12.106;2023-04-25T12:23:28;1.55;;;1.30;;
12631;SDS011;6381;45.748;12.106;2023-04-25T12:25:57;1.60;;;1.50;;
12631;SDS011;6381;45.748;12.106;2023-04-25T12:28:29;3.97;;;2.30;;
12631;SDS011;6381;45.748;12.106;2023-04-25T12:31:01;1.60;;;1.50;;
12631;SDS011;6381;45.748;12.106;2023-04-25T12:33:31;2.33;;;1.30;;
12631;SDS011;6381;45.748;12.106;2023-04-25T12:36:01;1.63;;;1.42;;
12631;SDS011;6381;45.748;12.106;2023-04-25T12:38:37;1.65;;;1.55;;
12631;SDS011;6381;45.748;12.106;2023-04-25T12:41:06;2.05;;;1.20;;
12631;SDS011;6381;45.748;12.106;2023-04-25T12:43:36;1.70;;;1.60;;
12631;SDS011;6381;45.748;12.106;2023-04-25T12:46:04;1.70;;;1.60;;
12631;SDS011;6381;45.748;12.106;2023-04-25T12:48:33;2.40;;;1.80;;
12631;SDS011;6381;45.748;12.106;2023-04-25T12:51:02;1.52;;;1.42;;
12631;SDS011;6381;45.748;12.106;2023-04-25T12:53:31;2.67;;;2.08;;
12631;SDS011;6381;45.748;12.106;2023-04-25T12:56:06;2.13;;;1.95;;
12631;SDS011;6381;45.748;12.106;2023-04-25T12:58:35;4.18;;;3.67;;
12631;SDS011;6381;45.748;12.106;2023-04-25T13:01:03;1.90;;;1.70;;
12631;SDS011;6381;45.748;12.106;2023-04-25T13:03:33;2.17;;;1.88;;
12631;SDS011;6381;45.748;12.106;2023-04-25T13:06:03;1.50;;;1.40;;
12631;SDS011;6381;45.748;12.106;2023-04-25T13:08:32;1.63;;;1.52;;
12631;SDS011;6381;45.748;12.106;2023-04-25T13:11:01;1.60;;;1.50;;
12631;SDS011;6381;45.748;12.106;2023-04-25T13:13:32;2.45;;;1.40;;
12631;SDS011;6381;45.748;12.106;2023-04-25T13:16:01;2.53;;;2.33;;
12631;SDS011;6381;45.748;12.106;2023-04-25T13:18:30;2.87;;;2.40;;
12631;SDS011;6381;45.748;12.106;2023-04-25T13:20:59;1.13;;;1.05;;
12631;SDS011;6381;45.748;12.106;2023-04-25T13:23:28;1.40;;;1.30;;
12631;SDS011;6381;45.748;12.106;2023-04-25T13:25:57;1.42;;;1.33;;
12631;SDS011;6381;45.748;12.106;2023-04-25T13:28:28;1.85;;;1.30;;
12631;SDS011;6381;45.748;12.106;2023-04-25T13:30:58;1.35;;;1.23;;
12631;SDS011;6381;45.748;12.106;2023-04-25T13:33:27;1.40;;;1.30;;
12631;SDS011;6381;45.748;12.106;2023-04-25T13:35:56;1.30;;;1.20;;
12631;SDS011;6381;45.748;12.106;2023-04-25T13:38:25;1.20;;;1.10;;
12631;SDS011;6381;45.748;12.106;2023-04-25T13:40:54;1.17;;;1.08;;
12631;SDS011;6381;45.748;12.106;2023-04-25T13:43:22;1.30;;;1.20;;
12631;SDS011;6381;45.748;12.106;2023-04-25T13:45:51;1.20;;;1.10;;
12631;SDS011;6381;45.748;12.106;2023-04-25T13:48:21;1.23;;;1.13;;
12631;SDS011;6381;45.748;12.106;2023-04-25T13:50:52;1.50;;;1.40;;
12631;SDS011;6381;45.748;12.106;2023-04-25T13:53:20;2.55;;;1.40;;
12631;SDS011;6381;45.748;12.106;2023-04-25T13:55:51;1.30;;;1.20;;
12631;SDS011;6381;45.748;12.106;2023-04-25T13:58:19;1.50;;;1.40;;
12631;SDS011;6381;45.748;12.106;2023-04-25T14:00:49;1.20;;;1.10;;
12631;SDS011;6381;45.748;12.106;2023-04-25T14:03:17;1.27;;;1.17;;
12631;SDS011;6381;45.748;12.106;2023-04-25T14:05:48;1.95;;;1.27;;
12631;SDS011;6381;45.748;12.106;2023-04-25T14:08:16;2.20;;;1.50;;
12631;SDS011;6381;45.748;12.106;2023-04-25T14:10:45;1.80;;;1.58;;
12631;SDS011;6381;45.748;12.106;2023-04-25T14:13:14;1.77;;;1.52;;
12631;SDS011;6381;45.748;12.106;2023-04-25T14:15:43;1.50;;;1.40;;
12631;SDS011;6381;45.748;12.106;2023-04-25T14:18:12;1.70;;;1.60;;
12631;SDS011;6381;45.748;12.106;2023-04-25T14:20:41;1.85;;;1.50;;
12631;SDS011;6381;45.748;12.106;2023-04-25T14:23:11;1.75;;;1.50;;
12631;SDS011;6381;45.748;12.106;2023-04-25T14:25:40;1.58;;;1.48;;
12631;SDS011;6381;45.748;12.106;2023-04-25T14:28:10;2.05;;;1.83;;
12631;SDS011;6381;45.748;12.106;2023-04-25T14:30:39;2.03;;;1.48;;
12631;SDS011;6381;45.748;12.106;2023-04-25T14:33:07;1.60;;;1.50;;
12631;SDS011;6381;45.748;12.106;2023-04-25T14:35:36;1.42;;;1.33;;
12631;SDS011;6381;45.748;12.106;2023-04-25T14:38:05;1.60;;;1.50;;
12631;SDS011;6381;45.748;12.106;2023-04-25T14:40:35;1.40;;;1.30;;
12631;SDS011;6381;45.748;12.106;2023-04-25T14:43:04;1.42;;;1.30;;
12631;SDS011;6381;45.748;12.106;2023-04-25T14:45:33;1.58;;;1.48;;
12631;SDS011;6381;45.748;12.106;2023-04-25T14:48:03;2.00;;;1.38;;
12631;SDS011;6381;45.748;12.106;2023-04-25T14:50:32;1.52;;;1.42;;
12631;SDS011;6381;45.748;12.106;2023-04-25T14:53:01;1.58;;;1.48;;
12631;SDS011;6381;45.748;12.106;2023-04-25T14:55:30;2.35;;;1.50;;
12631;SDS011;6381;45.748;12.106;2023-04-25T14:58:00;1.95;;;1.60;;
12631;SDS011;6381;45.748;12.106;2023-04-25T15:00:29;1.73;;;1.63;;
12631;SDS011;6381;45.748;12.106;2023-04-25T15:02:58;2.45;;;1.75;;
12631;SDS011;6381;45.748;12.106;2023-04-25T15:05:27;2.22;;;2.03;;
12631;SDS011;6381;45.748;12.106;2023-04-25T15:07:56;2.20;;;1.87;;
12631;SDS011;6381;45.748;12.106;2023-04-25T15:10:25;2.22;;;2.03;;
12631;SDS011;6381;45.748;12.106;2023-04-25T15:12:54;2.20;;;2.00;;
12631;SDS011;6381;45.748;12.106;2023-04-25T15:15:25;2.67;;;2.10;;
12631;SDS011;6381;45.748;12.106;2023-04-25T15:17:53;1.87;;;1.70;;